createdAt,value
2023-09-06T00:01:54.950Z,4.70
2023-09-06T00:06:53.621Z,5.43
2023-09-06T00:11:51.967Z,5.10
2023-09-06T00:16:51.750Z,4.93
2023-09-06T00:21:50.008Z,6.00
2023-09-06T00:26:48.151Z,5.70
2023-09-06T00:31:46.951Z,5.40
2023-09-06T00:36:49.748Z,5.10
2023-09-06T00:41:49.569Z,5.63
2023-09-06T00:46:48.279Z,5.27
2023-09-06T00:51:48.013Z,5.70
2023-09-06T00:56:46.325Z,5.23
2023-09-06T01:01:45.665Z,5.53
2023-09-06T01:06:45.705Z,5.57
2023-09-06T01:11:45.418Z,5.87
2023-09-06T01:16:47.457Z,5.30
2023-09-06T01:21:54.711Z,5.30
2023-09-06T01:26:55.374Z,5.67
2023-09-06T01:31:53.805Z,5.30
2023-09-06T01:36:52.209Z,5.50
2023-09-06T01:41:50.468Z,5.17
2023-09-06T01:46:50.239Z,5.40
2023-09-06T01:51:49.118Z,5.43
2023-09-06T01:56:47.618Z,5.47
2023-09-06T02:01:46.123Z,5.60
2023-09-06T02:06:46.646Z,5.73
2023-09-06T02:11:44.957Z,6.50
2023-09-06T02:16:43.328Z,5.80
2023-09-06T02:21:41.719Z,6.10
2023-09-06T02:26:41.358Z,5.90
2023-09-06T02:31:40.084Z,6.13
2023-09-06T02:36:38.870Z,5.47
2023-09-06T02:41:37.163Z,6.00
2023-09-06T02:46:37.983Z,5.60
2023-09-06T02:51:38.613Z,6.50
2023-09-06T02:56:38.873Z,6.50
2023-09-06T03:01:46.071Z,6.80
2023-09-06T03:06:45.881Z,5.77
2023-09-06T03:11:45.901Z,6.40
2023-09-06T03:16:46.261Z,6.20
2023-09-06T03:21:44.795Z,6.97
2023-09-06T03:26:45.548Z,6.50
2023-09-06T03:31:47.514Z,7.10
2023-09-06T03:36:48.278Z,6.87
2023-09-06T03:41:47.513Z,6.60
2023-09-06T03:46:48.114Z,6.90
2023-09-06T03:51:50.020Z,7.40
2023-09-06T03:56:48.376Z,7.00
2023-09-06T04:01:49.114Z,7.00
2023-09-06T04:06:47.661Z,7.10
2023-09-06T04:11:49.028Z,6.80
2023-09-06T04:16:49.719Z,6.13
2023-09-06T04:21:52.347Z,6.97
2023-09-06T04:26:50.936Z,7.90
2023-09-06T04:31:50.927Z,7.30
2023-09-06T04:36:49.599Z,8.00
2023-09-06T04:41:49.016Z,7.40
2023-09-06T04:46:47.215Z,7.30
2023-09-06T04:51:48.195Z,7.80
2023-09-06T04:56:47.838Z,8.30
2023-09-06T05:01:47.070Z,6.93
2023-09-06T05:06:47.020Z,8.07
2023-09-06T05:11:45.488Z,7.40
2023-09-06T05:16:43.851Z,7.80
2023-09-06T05:21:42.332Z,8.70
2023-09-06T05:26:42.064Z,8.40
2023-09-06T05:31:40.465Z,7.83
2023-09-06T05:36:39.304Z,7.90
2023-09-06T05:41:37.681Z,8.30
2023-09-06T05:46:38.023Z,7.47
2023-09-06T05:51:40.008Z,7.70
2023-09-06T05:56:38.694Z,8.57
2023-09-06T06:01:39.083Z,8.13
2023-09-06T06:06:37.456Z,8.43
2023-09-06T06:11:36.350Z,8.03
2023-09-06T06:16:34.753Z,7.97
2023-09-06T06:21:34.440Z,9.33
2023-09-06T06:26:32.813Z,8.50
2023-09-06T06:31:31.056Z,9.50
2023-09-06T06:36:29.218Z,8.60
2023-09-06T06:41:28.715Z,9.03
2023-09-06T06:46:29.751Z,11.10
2023-09-06T06:51:28.348Z,8.77
2023-09-06T06:56:28.208Z,9.40
2023-09-06T07:01:28.538Z,8.37
2023-09-06T07:06:27.353Z,8.40
2023-09-06T07:11:25.951Z,8.43
2023-09-06T07:16:26.577Z,7.77
2023-09-06T07:21:26.851Z,8.03
2023-09-06T07:26:25.273Z,6.93
2023-09-06T07:31:25.059Z,6.53
2023-09-06T07:36:23.704Z,6.60
2023-09-06T07:41:22.068Z,7.97
2023-09-06T07:46:20.579Z,7.10
2023-09-06T07:51:21.369Z,7.40
2023-09-06T07:56:19.901Z,5.70
2023-09-06T08:01:19.943Z,6.90
2023-09-06T08:06:18.595Z,20.50
2023-09-06T08:11:20.576Z,12.70
2023-09-06T08:16:20.334Z,7.63
2023-09-06T08:21:18.895Z,6.50
2023-09-06T08:26:17.401Z,6.10
2023-09-06T08:31:17.160Z,5.70
2023-09-06T08:36:15.760Z,6.37
2023-09-06T08:41:14.179Z,6.07
2023-09-06T08:46:22.782Z,5.63
2023-09-06T08:51:22.612Z,9.17
2023-09-06T08:56:21.581Z,5.37
2023-09-06T09:01:21.321Z,5.40
2023-09-06T09:06:19.621Z,5.70
2023-09-06T09:11:20.070Z,5.20
2023-09-06T09:16:20.507Z,5.03
2023-09-06T09:21:18.640Z,6.00
2023-09-06T09:26:21.256Z,5.40
2023-09-06T09:31:21.243Z,5.40
2023-09-06T09:36:21.294Z,5.43
2023-09-06T09:41:21.025Z,5.40
2023-09-06T09:46:31.585Z,4.73
2023-09-06T09:51:31.313Z,5.10
2023-09-06T09:56:31.289Z,5.30
2023-09-06T10:01:32.347Z,5.00
2023-09-06T10:06:32.544Z,4.80
2023-09-06T10:11:33.533Z,4.00
2023-09-06T10:16:33.689Z,5.30
2023-09-06T10:21:34.429Z,4.40
2023-09-06T10:26:35.618Z,4.87
2023-09-06T10:31:47.978Z,4.50
2023-09-06T10:36:54.537Z,4.70
2023-09-06T10:42:18.428Z,4.57
2023-09-06T10:47:28.494Z,3.80
2023-09-06T10:52:44.791Z,3.53
2023-09-06T10:57:55.859Z,4.67
2023-09-06T11:03:23.331Z,4.33
2023-09-06T11:08:29.028Z,3.93
2023-09-06T11:13:30.444Z,3.97
2023-09-06T11:18:33.930Z,4.20
2023-09-06T11:23:32.556Z,4.10
2023-09-06T11:28:33.049Z,3.70
2023-09-06T11:33:33.387Z,4.13
2023-09-06T11:38:36.545Z,4.03
2023-09-06T11:43:35.642Z,3.53
2023-09-06T11:48:36.639Z,3.87
2023-09-06T11:53:35.903Z,3.57
2023-09-06T11:58:35.630Z,3.70
2023-09-06T12:03:36.752Z,3.87
2023-09-06T12:08:36.503Z,3.90
2023-09-06T12:13:36.964Z,3.90
2023-09-06T12:18:36.853Z,4.13
2023-09-06T12:23:38.771Z,4.57
2023-09-06T12:28:37.290Z,3.70
2023-09-06T12:33:35.687Z,3.80
2023-09-06T12:38:34.487Z,3.50
2023-09-06T12:43:36.293Z,3.60
2023-09-06T12:48:35.794Z,3.83
2023-09-06T12:53:34.613Z,4.00
2023-09-06T12:58:34.802Z,2.97
2023-09-06T13:03:33.082Z,3.30
2023-09-06T13:08:35.248Z,3.20
2023-09-06T13:13:35.948Z,2.87
2023-09-06T13:18:34.561Z,3.60
2023-09-06T13:23:33.718Z,3.53
2023-09-06T13:28:32.723Z,3.90
2023-09-06T13:33:35.652Z,3.60
2023-09-06T13:38:34.765Z,3.47
2023-09-06T13:43:33.138Z,3.50
2023-09-06T13:48:33.140Z,3.40
2023-09-06T13:53:31.730Z,3.53
2023-09-06T13:58:33.263Z,3.93
2023-09-06T14:03:33.308Z,5.17
2023-09-06T14:08:32.582Z,3.73
2023-09-06T14:13:31.536Z,4.00
2023-09-06T14:18:30.021Z,3.70
2023-09-06T14:23:29.823Z,3.60
2023-09-06T14:28:29.059Z,3.10
2023-09-06T14:33:28.171Z,3.20
2023-09-06T14:38:26.707Z,3.33
2023-09-06T14:43:26.747Z,3.10
2023-09-06T14:48:25.306Z,3.33
2023-09-06T14:53:23.596Z,3.77
2023-09-06T14:58:21.939Z,3.27
2023-09-06T15:03:21.766Z,3.03
2023-09-06T15:08:20.198Z,2.93
2023-09-06T15:13:18.635Z,3.53
2023-09-06T15:18:17.289Z,3.40
2023-09-06T15:23:17.120Z,3.80
2023-09-06T15:28:15.447Z,3.10
2023-09-06T15:33:13.647Z,3.60
2023-09-06T15:38:13.104Z,3.97
2023-09-06T15:43:12.881Z,3.20
2023-09-06T15:48:11.308Z,3.53
2023-09-06T15:53:09.721Z,3.80
2023-09-06T15:58:08.146Z,2.97
2023-09-06T16:03:09.049Z,3.47
2023-09-06T16:08:07.657Z,4.23
2023-09-06T16:13:07.724Z,4.00
2023-09-06T16:18:07.647Z,3.90
2023-09-06T16:23:06.463Z,3.60
2023-09-06T16:28:05.979Z,3.40
2023-09-06T16:33:04.762Z,3.43
2023-09-06T16:38:07.886Z,3.20
2023-09-06T16:43:06.333Z,3.60
2023-09-06T16:48:05.903Z,3.23
2023-09-06T16:53:07.382Z,3.23
2023-09-06T16:58:08.124Z,2.93
2023-09-06T17:03:07.127Z,3.23
2023-09-06T17:08:07.798Z,3.30
2023-09-06T17:13:06.281Z,4.07
2023-09-06T17:18:04.885Z,3.50
2023-09-06T17:23:03.178Z,4.73
2023-09-06T17:28:04.400Z,3.77
2023-09-06T17:33:03.684Z,3.80
2023-09-06T17:38:06.721Z,4.43
2023-09-06T17:43:09.782Z,5.10
2023-09-06T17:48:12.346Z,4.37
2023-09-06T17:53:14.154Z,4.60
2023-09-06T17:58:18.714Z,4.47
2023-09-06T18:03:19.649Z,3.97
2023-09-06T18:08:18.033Z,4.10
2023-09-06T18:13:18.198Z,4.20
2023-09-06T18:18:17.466Z,4.40
2023-09-06T18:23:17.037Z,4.33
2023-09-06T18:28:15.450Z,4.97
2023-09-06T18:33:18.505Z,5.60
2023-09-06T18:38:16.981Z,5.27
2023-09-06T18:43:17.320Z,5.90
2023-09-06T18:48:18.040Z,5.00
2023-09-06T18:53:16.493Z,4.73
2023-09-06T18:58:15.635Z,5.17
2023-09-06T19:03:17.044Z,4.60
2023-09-06T19:08:17.113Z,5.13
2023-09-06T19:13:15.749Z,5.00
2023-09-06T19:18:14.457Z,5.20
2023-09-06T19:23:18.233Z,4.90
2023-09-06T19:28:18.284Z,6.80
2023-09-06T19:33:16.755Z,5.73
2023-09-06T19:38:21.416Z,6.10
2023-09-06T19:43:25.932Z,6.07
2023-09-06T19:48:24.586Z,6.43
2023-09-06T19:53:22.941Z,6.80
2023-09-06T19:58:21.833Z,6.27
2023-09-06T20:03:21.739Z,6.47
2023-09-06T20:08:20.324Z,6.87
2023-09-06T20:13:18.736Z,6.33
2023-09-06T20:18:17.083Z,6.73
2023-09-06T20:23:16.886Z,7.20
2023-09-06T20:28:15.283Z,6.43
2023-09-06T20:33:13.709Z,6.37
2023-09-06T20:38:12.817Z,6.60
2023-09-06T20:43:12.813Z,6.40
2023-09-06T20:48:12.791Z,6.53
2023-09-06T20:53:10.936Z,6.43
2023-09-06T20:58:09.298Z,6.67
2023-09-06T21:03:08.996Z,6.33
2023-09-06T21:08:08.437Z,6.87
2023-09-06T21:13:06.719Z,7.20
2023-09-06T21:18:05.809Z,7.20
2023-09-06T21:23:06.525Z,6.80
2023-09-06T21:28:05.296Z,7.20
2023-09-06T21:33:03.420Z,7.37
2023-09-06T21:38:01.913Z,7.50
2023-09-06T21:43:15.975Z,7.63
2023-09-06T21:48:17.465Z,6.53
2023-09-06T21:53:15.982Z,6.73
2023-09-06T21:58:15.621Z,7.37
2023-09-06T22:03:34.862Z,6.73
2023-09-06T22:08:51.659Z,7.10
2023-09-06T22:14:09.868Z,7.50
2023-09-06T22:19:08.242Z,6.90
2023-09-06T22:24:07.542Z,6.90
2023-09-06T22:29:05.691Z,7.50
2023-09-06T22:34:05.694Z,6.60
2023-09-06T22:39:04.030Z,6.10
2023-09-06T22:44:02.510Z,7.10
2023-09-06T22:49:01.449Z,7.10
2023-09-06T22:54:01.446Z,7.90
2023-09-06T22:58:59.741Z,7.43
2023-09-06T23:03:58.172Z,7.33
2023-09-06T23:08:59.542Z,7.67
2023-09-06T23:13:58.978Z,7.30
2023-09-06T23:18:58.837Z,7.77
2023-09-06T23:24:00.867Z,8.73
2023-09-06T23:29:07.089Z,8.27
2023-09-06T23:34:11.296Z,7.87
2023-09-06T23:39:12.590Z,6.87
2023-09-06T23:44:12.380Z,7.10
2023-09-06T23:49:12.744Z,7.33
2023-09-06T23:54:12.141Z,7.50
2023-09-06T23:59:12.205Z,7.60
